Bangor International Airport Bangor US
ICAO: KBGR
IATA: BGR
Category: Large
Scheduled Services: Yes

Elevation: 192 ft
TransAlt. 18000 ft.

Airport Communications:
APP/DEP:118.925
ASOS:127.75
ATIS:127.75
CLNC DEL:135.9
GND:121.9
ARNG OPS:41.2
ANG OPS:31.1
RDO:122.2
TWR:120.7
UNICOM:122.95

KBGR Zoom In..

Runways:

(A) RW 15 length 11440 ft width 200 ft
ILS 109.50 / hdg 153

(B) RW 33 length 11440 ft width 200 ft
ILS 109.50 / hdg 333

Location; KBGR
Day. 09 / Time. 01.53 Zulu
* Altimeter: 30.08
* Temperature: 21° c. 69.8°f.
* Wind from: 190° Speed 05 kn.
Dewpoint: 15° c.
Visibility: 10 Statute Miles.
Clouds: Clear (automated report).

KBGR 090153Z 19005KT 10SM CLR 21/15 A3008 RMK AO2 SLP183 T02060150

Going to: --> -->


Wind From 190°
Speed 05 kn.

 
 
jpsmedia worldairports.se 2020   terms of use